sensor_id;sensor_type;location;lat;lon;timestamp;P1;durP1;ratioP1;P2;durP2;ratioP2
56997;SDS011;42890;44.244;22.530;2023-04-29T00:00:21;7.03;;;6.32;;
56997;SDS011;42890;44.244;22.530;2023-04-29T00:02:47;9.82;;;6.97;;
56997;SDS011;42890;44.244;22.530;2023-04-29T00:05:14;7.25;;;6.55;;
56997;SDS011;42890;44.244;22.530;2023-04-29T00:07:40;9.68;;;6.90;;
56997;SDS011;42890;44.244;22.530;2023-04-29T00:10:07;8.93;;;7.60;;
56997;SDS011;42890;44.244;22.530;2023-04-29T00:12:33;9.48;;;7.68;;
56997;SDS011;42890;44.244;22.530;2023-04-29T00:14:59;20.63;;;9.60;;
56997;SDS011;42890;44.244;22.530;2023-04-29T00:17:27;12.52;;;9.63;;
56997;SDS011;42890;44.244;22.530;2023-04-29T00:19:53;13.35;;;10.57;;
56997;SDS011;42890;44.244;22.530;2023-04-29T00:22:19;15.77;;;12.75;;
56997;SDS011;42890;44.244;22.530;2023-04-29T00:24:46;27.42;;;19.55;;
56997;SDS011;42890;44.244;22.530;2023-04-29T00:27:12;29.55;;;18.10;;
56997;SDS011;42890;44.244;22.530;2023-04-29T00:29:39;16.25;;;9.68;;
56997;SDS011;42890;44.244;22.530;2023-04-29T00:32:05;10.90;;;8.45;;
56997;SDS011;42890;44.244;22.530;2023-04-29T00:34:31;14.23;;;8.75;;
56997;SDS011;42890;44.244;22.530;2023-04-29T00:36:57;9.73;;;7.68;;
56997;SDS011;42890;44.244;22.530;2023-04-29T00:39:23;11.40;;;7.95;;
56997;SDS011;42890;44.244;22.530;2023-04-29T00:41:50;10.38;;;8.68;;
56997;SDS011;42890;44.244;22.530;2023-04-29T00:44:16;15.02;;;8.65;;
56997;SDS011;42890;44.244;22.530;2023-04-29T00:46:42;39.58;;;28.90;;
56997;SDS011;42890;44.244;22.530;2023-04-29T00:49:09;27.20;;;21.85;;
56997;SDS011;42890;44.244;22.530;2023-04-29T00:51:36;34.97;;;24.30;;
56997;SDS011;42890;44.244;22.530;2023-04-29T00:54:03;129.75;;;69.63;;
56997;SDS011;42890;44.244;22.530;2023-04-29T00:56:29;22.35;;;18.23;;
56997;SDS011;42890;44.244;22.530;2023-04-29T00:58:57;8.52;;;7.70;;
56997;SDS011;42890;44.244;22.530;2023-04-29T01:01:23;7.90;;;7.10;;
56997;SDS011;42890;44.244;22.530;2023-04-29T01:03:49;8.18;;;6.85;;
56997;SDS011;42890;44.244;22.530;2023-04-29T01:11:44;8.40;;;7.38;;
56997;SDS011;42890;44.244;22.530;2023-04-29T01:14:13;10.23;;;7.43;;
56997;SDS011;42890;44.244;22.530;2023-04-29T01:16:41;7.93;;;6.55;;
56997;SDS011;42890;44.244;22.530;2023-04-29T01:19:55;7.60;;;6.22;;
56997;SDS011;42890;44.244;22.530;2023-04-29T01:21:55;8.13;;;6.53;;
56997;SDS011;42890;44.244;22.530;2023-04-29T01:24:21;9.18;;;7.68;;
56997;SDS011;42890;44.244;22.530;2023-04-29T01:26:54;8.90;;;6.65;;
56997;SDS011;42890;44.244;22.530;2023-04-29T01:29:28;8.02;;;6.90;;
56997;SDS011;42890;44.244;22.530;2023-04-29T01:32:02;7.47;;;6.20;;
56997;SDS011;42890;44.244;22.530;2023-04-29T01:34:43;10.38;;;7.43;;
56997;SDS011;42890;44.244;22.530;2023-04-29T01:40:03;16.02;;;11.82;;
56997;SDS011;42890;44.244;22.530;2023-04-29T01:44:56;12.05;;;9.25;;
56997;SDS011;42890;44.244;22.530;2023-04-29T01:47:23;10.07;;;7.88;;
56997;SDS011;42890;44.244;22.530;2023-04-29T01:49:49;10.85;;;7.05;;
56997;SDS011;42890;44.244;22.530;2023-04-29T01:52:15;9.55;;;6.20;;
56997;SDS011;42890;44.244;22.530;2023-04-29T01:54:42;7.40;;;6.35;;
56997;SDS011;42890;44.244;22.530;2023-04-29T01:57:08;7.72;;;6.93;;
56997;SDS011;42890;44.244;22.530;2023-04-29T01:59:34;10.40;;;7.03;;
56997;SDS011;42890;44.244;22.530;2023-04-29T02:02:00;8.55;;;6.50;;
56997;SDS011;42890;44.244;22.530;2023-04-29T02:04:27;8.52;;;7.00;;
56997;SDS011;42890;44.244;22.530;2023-04-29T02:06:53;8.07;;;7.28;;
56997;SDS011;42890;44.244;22.530;2023-04-29T02:09:19;9.35;;;8.25;;
56997;SDS011;42890;44.244;22.530;2023-04-29T02:11:45;11.93;;;8.70;;
56997;SDS011;42890;44.244;22.530;2023-04-29T02:14:11;11.13;;;8.43;;
56997;SDS011;42890;44.244;22.530;2023-04-29T02:16:37;11.70;;;10.50;;
56997;SDS011;42890;44.244;22.530;2023-04-29T02:19:03;23.98;;;16.08;;
56997;SDS011;42890;44.244;22.530;2023-04-29T02:21:30;89.57;;;41.83;;
56997;SDS011;42890;44.244;22.530;2023-04-29T02:23:56;54.13;;;34.17;;
56997;SDS011;42890;44.244;22.530;2023-04-29T02:26:22;50.00;;;35.28;;
56997;SDS011;42890;44.244;22.530;2023-04-29T02:28:48;56.25;;;34.67;;
56997;SDS011;42890;44.244;22.530;2023-04-29T02:31:16;63.13;;;32.20;;
56997;SDS011;42890;44.244;22.530;2023-04-29T02:33:42;53.22;;;34.13;;
56997;SDS011;42890;44.244;22.530;2023-04-29T02:36:08;46.38;;;29.25;;
56997;SDS011;42890;44.244;22.530;2023-04-29T02:38:34;41.63;;;32.80;;
56997;SDS011;42890;44.244;22.530;2023-04-29T02:41:00;52.20;;;34.15;;
56997;SDS011;42890;44.244;22.530;2023-04-29T02:43:27;41.50;;;31.30;;
56997;SDS011;42890;44.244;22.530;2023-04-29T02:45:55;39.22;;;29.13;;
56997;SDS011;42890;44.244;22.530;2023-04-29T02:48:21;37.17;;;26.95;;
56997;SDS011;42890;44.244;22.530;2023-04-29T02:50:47;36.03;;;27.80;;
56997;SDS011;42890;44.244;22.530;2023-04-29T02:53:14;31.40;;;26.60;;
56997;SDS011;42890;44.244;22.530;2023-04-29T02:55:40;35.33;;;28.83;;
56997;SDS011;42890;44.244;22.530;2023-04-29T02:58:08;31.50;;;27.45;;
56997;SDS011;42890;44.244;22.530;2023-04-29T03:00:34;34.90;;;27.63;;
56997;SDS011;42890;44.244;22.530;2023-04-29T03:03:00;34.13;;;25.65;;
56997;SDS011;42890;44.244;22.530;2023-04-29T03:05:26;27.17;;;20.83;;
56997;SDS011;42890;44.244;22.530;2023-04-29T03:07:52;32.03;;;22.00;;
56997;SDS011;42890;44.244;22.530;2023-04-29T03:10:18;28.17;;;21.67;;
56997;SDS011;42890;44.244;22.530;2023-04-29T03:12:45;59.58;;;35.50;;
56997;SDS011;42890;44.244;22.530;2023-04-29T03:15:11;35.60;;;27.60;;
56997;SDS011;42890;44.244;22.530;2023-04-29T03:17:37;14.25;;;11.63;;
56997;SDS011;42890;44.244;22.530;2023-04-29T03:20:04;14.48;;;12.80;;
56997;SDS011;42890;44.244;22.530;2023-04-29T03:22:30;25.02;;;17.38;;
56997;SDS011;42890;44.244;22.530;2023-04-29T03:24:56;25.27;;;18.92;;
56997;SDS011;42890;44.244;22.530;2023-04-29T03:27:22;72.18;;;45.10;;
56997;SDS011;42890;44.244;22.530;2023-04-29T03:29:48;48.30;;;36.22;;
56997;SDS011;42890;44.244;22.530;2023-04-29T03:32:15;27.10;;;21.90;;
56997;SDS011;42890;44.244;22.530;2023-04-29T03:34:41;25.00;;;18.33;;
56997;SDS011;42890;44.244;22.530;2023-04-29T03:37:07;20.95;;;17.77;;
56997;SDS011;42890;44.244;22.530;2023-04-29T03:39:33;25.27;;;18.08;;
56997;SDS011;42890;44.244;22.530;2023-04-29T03:41:59;18.60;;;14.23;;
56997;SDS011;42890;44.244;22.530;2023-04-29T03:44:26;14.65;;;12.15;;
56997;SDS011;42890;44.244;22.530;2023-04-29T03:46:53;13.70;;;10.63;;
56997;SDS011;42890;44.244;22.530;2023-04-29T03:49:19;12.68;;;11.38;;
56997;SDS011;42890;44.244;22.530;2023-04-29T03:51:46;11.82;;;8.63;;
56997;SDS011;42890;44.244;22.530;2023-04-29T03:54:12;11.60;;;8.43;;
56997;SDS011;42890;44.244;22.530;2023-04-29T03:56:38;9.40;;;8.40;;
56997;SDS011;42890;44.244;22.530;2023-04-29T03:59:05;9.20;;;8.30;;
56997;SDS011;42890;44.244;22.530;2023-04-29T04:01:31;11.60;;;8.27;;
56997;SDS011;42890;44.244;22.530;2023-04-29T04:03:58;10.77;;;8.48;;
56997;SDS011;42890;44.244;22.530;2023-04-29T04:06:24;9.82;;;8.82;;
56997;SDS011;42890;44.244;22.530;2023-04-29T04:08:50;9.98;;;8.68;;
56997;SDS011;42890;44.244;22.530;2023-04-29T04:11:16;9.88;;;8.60;;
56997;SDS011;42890;44.244;22.530;2023-04-29T04:13:42;12.40;;;8.77;;
56997;SDS011;42890;44.244;22.530;2023-04-29T04:16:09;11.27;;;8.82;;
56997;SDS011;42890;44.244;22.530;2023-04-29T04:18:38;25.75;;;15.23;;
56997;SDS011;42890;44.244;22.530;2023-04-29T04:21:08;19.17;;;12.82;;
56997;SDS011;42890;44.244;22.530;2023-04-29T04:23:35;93.35;;;44.42;;
56997;SDS011;42890;44.244;22.530;2023-04-29T04:26:04;91.63;;;47.35;;
56997;SDS011;42890;44.244;22.530;2023-04-29T04:28:30;58.38;;;35.80;;
56997;SDS011;42890;44.244;22.530;2023-04-29T04:30:56;36.70;;;27.60;;
56997;SDS011;42890;44.244;22.530;2023-04-29T04:33:23;36.63;;;27.65;;
56997;SDS011;42890;44.244;22.530;2023-04-29T04:35:49;42.85;;;28.92;;
56997;SDS011;42890;44.244;22.530;2023-04-29T04:38:16;40.78;;;28.67;;
56997;SDS011;42890;44.244;22.530;2023-04-29T04:40:42;53.28;;;38.67;;
56997;SDS011;42890;44.244;22.530;2023-04-29T04:43:09;67.68;;;45.65;;
56997;SDS011;42890;44.244;22.530;2023-04-29T04:45:35;35.17;;;26.38;;
56997;SDS011;42890;44.244;22.530;2023-04-29T04:48:01;44.03;;;33.08;;
56997;SDS011;42890;44.244;22.530;2023-04-29T04:50:28;28.83;;;24.65;;
56997;SDS011;42890;44.244;22.530;2023-04-29T04:52:54;31.48;;;24.52;;
56997;SDS011;42890;44.244;22.530;2023-04-29T04:55:21;32.47;;;25.00;;
56997;SDS011;42890;44.244;22.530;2023-04-29T04:57:47;34.55;;;28.00;;
56997;SDS011;42890;44.244;22.530;2023-04-29T05:00:13;41.95;;;32.05;;
56997;SDS011;42890;44.244;22.530;2023-04-29T05:02:39;57.25;;;39.08;;
56997;SDS011;42890;44.244;22.530;2023-04-29T05:05:06;71.38;;;45.20;;
56997;SDS011;42890;44.244;22.530;2023-04-29T05:07:32;60.08;;;44.47;;
56997;SDS011;42890;44.244;22.530;2023-04-29T05:10:01;47.90;;;37.95;;
56997;SDS011;42890;44.244;22.530;2023-04-29T05:12:28;30.58;;;24.55;;
56997;SDS011;42890;44.244;22.530;2023-04-29T05:14:57;26.00;;;21.90;;
56997;SDS011;42890;44.244;22.530;2023-04-29T05:17:23;22.00;;;18.45;;
56997;SDS011;42890;44.244;22.530;2023-04-29T05:19:49;22.13;;;15.93;;
56997;SDS011;42890;44.244;22.530;2023-04-29T05:22:15;16.08;;;14.35;;
56997;SDS011;42890;44.244;22.530;2023-04-29T05:24:41;13.93;;;12.18;;
56997;SDS011;42890;44.244;22.530;2023-04-29T05:27:08;13.40;;;10.60;;
56997;SDS011;42890;44.244;22.530;2023-04-29T05:29:34;14.32;;;10.85;;
56997;SDS011;42890;44.244;22.530;2023-04-29T05:32:00;12.93;;;10.18;;
56997;SDS011;42890;44.244;22.530;2023-04-29T05:34:26;14.95;;;8.55;;
56997;SDS011;42890;44.244;22.530;2023-04-29T05:36:53;10.38;;;8.40;;
56997;SDS011;42890;44.244;22.530;2023-04-29T05:39:19;12.45;;;8.13;;
56997;SDS011;42890;44.244;22.530;2023-04-29T05:41:45;12.68;;;8.23;;
56997;SDS011;42890;44.244;22.530;2023-04-29T05:44:11;10.40;;;7.60;;
56997;SDS011;42890;44.244;22.530;2023-04-29T05:46:37;8.90;;;7.30;;
56997;SDS011;42890;44.244;22.530;2023-04-29T05:49:04;10.55;;;8.07;;
56997;SDS011;42890;44.244;22.530;2023-04-29T05:51:30;10.13;;;8.00;;
56997;SDS011;42890;44.244;22.530;2023-04-29T05:53:56;12.70;;;7.80;;
56997;SDS011;42890;44.244;22.530;2023-04-29T05:56:24;12.77;;;8.18;;
56997;SDS011;42890;44.244;22.530;2023-04-29T05:58:50;11.95;;;9.35;;
56997;SDS011;42890;44.244;22.530;2023-04-29T06:01:16;10.00;;;8.98;;
56997;SDS011;42890;44.244;22.530;2023-04-29T06:03:42;8.95;;;7.90;;
56997;SDS011;42890;44.244;22.530;2023-04-29T06:06:09;10.35;;;9.30;;
56997;SDS011;42890;44.244;22.530;2023-04-29T06:08:35;22.50;;;8.88;;
56997;SDS011;42890;44.244;22.530;2023-04-29T06:11:01;10.25;;;8.13;;
56997;SDS011;42890;44.244;22.530;2023-04-29T06:13:29;12.00;;;8.52;;
56997;SDS011;42890;44.244;22.530;2023-04-29T06:15:55;10.63;;;8.60;;
56997;SDS011;42890;44.244;22.530;2023-04-29T06:18:21;11.75;;;9.25;;
56997;SDS011;42890;44.244;22.530;2023-04-29T06:20:48;11.85;;;8.93;;
56997;SDS011;42890;44.244;22.530;2023-04-29T06:23:14;11.52;;;9.10;;
56997;SDS011;42890;44.244;22.530;2023-04-29T06:25:40;10.52;;;8.65;;
56997;SDS011;42890;44.244;22.530;2023-04-29T06:28:06;14.07;;;9.82;;
56997;SDS011;42890;44.244;22.530;2023-04-29T06:30:33;10.80;;;9.40;;
56997;SDS011;42890;44.244;22.530;2023-04-29T06:32:59;13.23;;;9.63;;
56997;SDS011;42890;44.244;22.530;2023-04-29T06:35:25;19.08;;;10.18;;
56997;SDS011;42890;44.244;22.530;2023-04-29T06:37:51;13.18;;;10.40;;
56997;SDS011;42890;44.244;22.530;2023-04-29T06:40:17;16.15;;;9.95;;
56997;SDS011;42890;44.244;22.530;2023-04-29T06:42:43;16.10;;;9.98;;
56997;SDS011;42890;44.244;22.530;2023-04-29T06:45:09;13.50;;;9.88;;
56997;SDS011;42890;44.244;22.530;2023-04-29T06:47:35;14.25;;;9.68;;
56997;SDS011;42890;44.244;22.530;2023-04-29T06:50:02;12.55;;;10.43;;
56997;SDS011;42890;44.244;22.530;2023-04-29T06:52:29;16.40;;;10.45;;
56997;SDS011;42890;44.244;22.530;2023-04-29T06:54:56;16.15;;;10.23;;
56997;SDS011;42890;44.244;22.530;2023-04-29T06:57:22;11.57;;;10.13;;
56997;SDS011;42890;44.244;22.530;2023-04-29T06:59:48;15.50;;;9.88;;
56997;SDS011;42890;44.244;22.530;2023-04-29T07:02:14;11.15;;;9.95;;
56997;SDS011;42890;44.244;22.530;2023-04-29T07:04:41;14.30;;;9.60;;
56997;SDS011;42890;44.244;22.530;2023-04-29T07:07:07;15.48;;;10.27;;
56997;SDS011;42890;44.244;22.530;2023-04-29T07:09:34;11.40;;;9.70;;
56997;SDS011;42890;44.244;22.530;2023-04-29T07:12:00;12.80;;;9.50;;
56997;SDS011;42890;44.244;22.530;2023-04-29T07:14:26;13.68;;;10.82;;
56997;SDS011;42890;44.244;22.530;2023-04-29T07:16:53;12.65;;;9.88;;
56997;SDS011;42890;44.244;22.530;2023-04-29T07:19:19;14.25;;;9.73;;
56997;SDS011;42890;44.244;22.530;2023-04-29T07:21:45;11.13;;;9.63;;
56997;SDS011;42890;44.244;22.530;2023-04-29T07:24:11;13.00;;;9.15;;
56997;SDS011;42890;44.244;22.530;2023-04-29T07:26:37;11.75;;;9.80;;
56997;SDS011;42890;44.244;22.530;2023-04-29T07:29:04;10.63;;;9.52;;
56997;SDS011;42890;44.244;22.530;2023-04-29T07:31:30;11.95;;;8.63;;
56997;SDS011;42890;44.244;22.530;2023-04-29T07:33:57;15.45;;;9.95;;
56997;SDS011;42890;44.244;22.530;2023-04-29T07:36:23;15.43;;;8.93;;
56997;SDS011;42890;44.244;22.530;2023-04-29T07:38:49;9.90;;;8.90;;
56997;SDS011;42890;44.244;22.530;2023-04-29T07:41:16;11.48;;;9.05;;
56997;SDS011;42890;44.244;22.530;2023-04-29T07:43:42;10.73;;;8.90;;
56997;SDS011;42890;44.244;22.530;2023-04-29T07:46:08;10.48;;;8.27;;
56997;SDS011;42890;44.244;22.530;2023-04-29T07:48:38;11.25;;;8.52;;
56997;SDS011;42890;44.244;22.530;2023-04-29T07:51:04;10.45;;;8.75;;
56997;SDS011;42890;44.244;22.530;2023-04-29T07:53:31;13.48;;;9.13;;
56997;SDS011;42890;44.244;22.530;2023-04-29T07:55:57;14.63;;;9.02;;
56997;SDS011;42890;44.244;22.530;2023-04-29T07:58:23;20.90;;;8.93;;
56997;SDS011;42890;44.244;22.530;2023-04-29T08:00:49;19.70;;;9.05;;
56997;SDS011;42890;44.244;22.530;2023-04-29T08:03:15;13.93;;;8.30;;
56997;SDS011;42890;44.244;22.530;2023-04-29T08:05:41;16.77;;;8.45;;
56997;SDS011;42890;44.244;22.530;2023-04-29T08:08:09;10.23;;;8.95;;
56997;SDS011;42890;44.244;22.530;2023-04-29T08:10:36;11.82;;;9.23;;
56997;SDS011;42890;44.244;22.530;2023-04-29T08:13:05;11.57;;;8.43;;
56997;SDS011;42890;44.244;22.530;2023-04-29T08:15:31;12.93;;;8.95;;
56997;SDS011;42890;44.244;22.530;2023-04-29T08:17:58;16.15;;;9.00;;
56997;SDS011;42890;44.244;22.530;2023-04-29T08:20:24;11.45;;;8.50;;
56997;SDS011;42890;44.244;22.530;2023-04-29T08:22:50;13.23;;;9.25;;
56997;SDS011;42890;44.244;22.530;2023-04-29T08:25:17;14.00;;;9.20;;
56997;SDS011;42890;44.244;22.530;2023-04-29T08:27:43;10.02;;;8.98;;
56997;SDS011;42890;44.244;22.530;2023-04-29T08:30:10;15.10;;;9.70;;
56997;SDS011;42890;44.244;22.530;2023-04-29T08:32:36;10.45;;;9.40;;
56997;SDS011;42890;44.244;22.530;2023-04-29T08:35:02;12.38;;;9.45;;
56997;SDS011;42890;44.244;22.530;2023-04-29T08:37:28;10.98;;;9.75;;
56997;SDS011;42890;44.244;22.530;2023-04-29T08:39:56;12.98;;;9.35;;
56997;SDS011;42890;44.244;22.530;2023-04-29T08:42:29;10.63;;;9.50;;
56997;SDS011;42890;44.244;22.530;2023-04-29T08:44:57;11.52;;;9.82;;
56997;SDS011;42890;44.244;22.530;2023-04-29T08:47:24;11.48;;;9.75;;
56997;SDS011;42890;44.244;22.530;2023-04-29T08:49:52;14.77;;;10.02;;
56997;SDS011;42890;44.244;22.530;2023-04-29T08:52:18;11.85;;;9.20;;
56997;SDS011;42890;44.244;22.530;2023-04-29T08:54:44;14.18;;;9.95;;
56997;SDS011;42890;44.244;22.530;2023-04-29T08:57:10;12.05;;;9.90;;
56997;SDS011;42890;44.244;22.530;2023-04-29T08:59:37;11.77;;;9.68;;
56997;SDS011;42890;44.244;22.530;2023-04-29T09:02:05;14.98;;;9.57;;
56997;SDS011;42890;44.244;22.530;2023-04-29T09:04:39;13.93;;;9.60;;
56997;SDS011;42890;44.244;22.530;2023-04-29T09:07:06;12.68;;;9.50;;
56997;SDS011;42890;44.244;22.530;2023-04-29T09:09:33;12.45;;;9.20;;
56997;SDS011;42890;44.244;22.530;2023-04-29T09:11:59;14.35;;;9.02;;
56997;SDS011;42890;44.244;22.530;2023-04-29T09:14:25;12.18;;;9.45;;
56997;SDS011;42890;44.244;22.530;2023-04-29T09:16:53;10.68;;;8.60;;
56997;SDS011;42890;44.244;22.530;2023-04-29T09:19:29;11.88;;;8.85;;
56997;SDS011;42890;44.244;22.530;2023-04-29T09:21:56;10.35;;;8.63;;
56997;SDS011;42890;44.244;22.530;2023-04-29T09:24:25;15.18;;;9.43;;
56997;SDS011;42890;44.244;22.530;2023-04-29T09:26:52;11.65;;;8.63;;
56997;SDS011;42890;44.244;22.530;2023-04-29T09:29:19;13.00;;;9.23;;
56997;SDS011;42890;44.244;22.530;2023-04-29T09:31:45;12.85;;;9.15;;
56997;SDS011;42890;44.244;22.530;2023-04-29T09:34:12;13.82;;;9.73;;
56997;SDS011;42890;44.244;22.530;2023-04-29T09:36:39;10.75;;;9.05;;
56997;SDS011;42890;44.244;22.530;2023-04-29T09:39:06;13.10;;;9.63;;
56997;SDS011;42890;44.244;22.530;2023-04-29T09:44:18;17.15;;;8.63;;
56997;SDS011;42890;44.244;22.530;2023-04-29T09:46:53;16.98;;;8.52;;
56997;SDS011;42890;44.244;22.530;2023-04-29T09:49:27;11.25;;;9.35;;
56997;SDS011;42890;44.244;22.530;2023-04-29T09:51:54;13.77;;;9.60;;
56997;SDS011;42890;44.244;22.530;2023-04-29T09:54:21;11.98;;;9.50;;
56997;SDS011;42890;44.244;22.530;2023-04-29T09:56:48;12.40;;;9.43;;
56997;SDS011;42890;44.244;22.530;2023-04-29T09:59:16;12.63;;;9.10;;
56997;SDS011;42890;44.244;22.530;2023-04-29T10:01:42;12.35;;;9.80;;
56997;SDS011;42890;44.244;22.530;2023-04-29T10:04:08;12.90;;;9.15;;
56997;SDS011;42890;44.244;22.530;2023-04-29T10:06:37;12.60;;;9.63;;
56997;SDS011;42890;44.244;22.530;2023-04-29T10:09:06;16.90;;;9.15;;
56997;SDS011;42890;44.244;22.530;2023-04-29T10:11:34;11.35;;;9.10;;
56997;SDS011;42890;44.244;22.530;2023-04-29T10:14:01;10.15;;;9.05;;
56997;SDS011;42890;44.244;22.530;2023-04-29T10:16:33;9.98;;;9.05;;
56997;SDS011;42890;44.244;22.530;2023-04-29T10:18:59;13.65;;;9.93;;
56997;SDS011;42890;44.244;22.530;2023-04-29T10:21:31;9.50;;;8.57;;
56997;SDS011;42890;44.244;22.530;2023-04-29T10:23:57;11.35;;;9.30;;
56997;SDS011;42890;44.244;22.530;2023-04-29T10:26:27;13.32;;;10.23;;
56997;SDS011;42890;44.244;22.530;2023-04-29T10:28:57;11.77;;;9.13;;
56997;SDS011;42890;44.244;22.530;2023-04-29T10:31:27;17.25;;;9.93;;
56997;SDS011;42890;44.244;22.530;2023-04-29T10:33:57;12.35;;;9.30;;
56997;SDS011;42890;44.244;22.530;2023-04-29T10:36:24;13.23;;;8.75;;
56997;SDS011;42890;44.244;22.530;2023-04-29T10:38:53;14.02;;;9.40;;
56997;SDS011;42890;44.244;22.530;2023-04-29T10:41:21;10.32;;;9.25;;
56997;SDS011;42890;44.244;22.530;2023-04-29T10:43:50;12.38;;;9.95;;
56997;SDS011;42890;44.244;22.530;2023-04-29T10:46:17;12.02;;;9.43;;
56997;SDS011;42890;44.244;22.530;2023-04-29T10:48:44;13.50;;;9.50;;
56997;SDS011;42890;44.244;22.530;2023-04-29T10:51:10;14.75;;;10.45;;
56997;SDS011;42890;44.244;22.530;2023-04-29T10:53:57;18.27;;;9.57;;
56997;SDS011;42890;44.244;22.530;2023-04-29T10:56:28;12.98;;;9.45;;
56997;SDS011;42890;44.244;22.530;2023-04-29T10:59:00;13.82;;;10.25;;
56997;SDS011;42890;44.244;22.530;2023-04-29T11:01:39;11.43;;;9.50;;
56997;SDS011;42890;44.244;22.530;2023-04-29T11:04:06;16.17;;;9.18;;
56997;SDS011;42890;44.244;22.530;2023-04-29T11:09:23;15.07;;;9.90;;
56997;SDS011;42890;44.244;22.530;2023-04-29T11:14:33;17.60;;;9.93;;
56997;SDS011;42890;44.244;22.530;2023-04-29T11:17:09;11.40;;;9.38;;
56997;SDS011;42890;44.244;22.530;2023-04-29T11:19:39;11.25;;;9.20;;
56997;SDS011;42890;44.244;22.530;2023-04-29T11:22:10;14.30;;;10.52;;
56997;SDS011;42890;44.244;22.530;2023-04-29T11:24:47;12.82;;;9.63;;
56997;SDS011;42890;44.244;22.530;2023-04-29T11:27:14;13.07;;;8.30;;
56997;SDS011;42890;44.244;22.530;2023-04-29T11:29:40;11.32;;;9.30;;
56997;SDS011;42890;44.244;22.530;2023-04-29T11:32:07;13.35;;;9.45;;
56997;SDS011;42890;44.244;22.530;2023-04-29T11:34:33;13.30;;;9.18;;
56997;SDS011;42890;44.244;22.530;2023-04-29T11:36:59;10.65;;;8.95;;
56997;SDS011;42890;44.244;22.530;2023-04-29T11:39:25;11.43;;;9.77;;
56997;SDS011;42890;44.244;22.530;2023-04-29T11:42:01;9.77;;;7.97;;
56997;SDS011;42890;44.244;22.530;2023-04-29T11:44:28;11.30;;;10.10;;
56997;SDS011;42890;44.244;22.530;2023-04-29T11:47:00;12.02;;;10.60;;
56997;SDS011;42890;44.244;22.530;2023-04-29T11:49:28;12.27;;;8.57;;
56997;SDS011;42890;44.244;22.530;2023-04-29T11:51:55;11.77;;;9.35;;
56997;SDS011;42890;44.244;22.530;2023-04-29T11:54:23;10.50;;;8.73;;
56997;SDS011;42890;44.244;22.530;2023-04-29T11:56:51;8.82;;;7.93;;
56997;SDS011;42890;44.244;22.530;2023-04-29T11:59:18;13.70;;;9.07;;
56997;SDS011;42890;44.244;22.530;2023-04-29T12:01:45;14.85;;;8.50;;
56997;SDS011;42890;44.244;22.530;2023-04-29T12:04:11;13.55;;;8.25;;
56997;SDS011;42890;44.244;22.530;2023-04-29T12:06:37;10.50;;;8.30;;
56997;SDS011;42890;44.244;22.530;2023-04-29T12:09:03;9.48;;;8.50;;
56997;SDS011;42890;44.244;22.530;2023-04-29T12:11:29;14.50;;;8.52;;
56997;SDS011;42890;44.244;22.530;2023-04-29T12:13:56;9.73;;;8.15;;
56997;SDS011;42890;44.244;22.530;2023-04-29T12:16:22;14.10;;;8.57;;
56997;SDS011;42890;44.244;22.530;2023-04-29T12:18:49;12.80;;;9.27;;
56997;SDS011;42890;44.244;22.530;2023-04-29T12:21:16;15.38;;;9.23;;
56997;SDS011;42890;44.244;22.530;2023-04-29T12:23:42;8.93;;;8.02;;
56997;SDS011;42890;44.244;22.530;2023-04-29T12:26:08;11.93;;;8.20;;
56997;SDS011;42890;44.244;22.530;2023-04-29T12:28:34;11.27;;;7.78;;
56997;SDS011;42890;44.244;22.530;2023-04-29T12:31:01;12.43;;;8.73;;
56997;SDS011;42890;44.244;22.530;2023-04-29T12:33:28;9.48;;;7.97;;
56997;SDS011;42890;44.244;22.530;2023-04-29T12:35:55;14.70;;;8.88;;
56997;SDS011;42890;44.244;22.530;2023-04-29T12:38:25;12.77;;;8.75;;
56997;SDS011;42890;44.244;22.530;2023-04-29T12:40:52;11.00;;;8.55;;
56997;SDS011;42890;44.244;22.530;2023-04-29T12:43:18;12.90;;;8.80;;
56997;SDS011;42890;44.244;22.530;2023-04-29T12:45:45;13.80;;;8.23;;
56997;SDS011;42890;44.244;22.530;2023-04-29T12:48:11;13.43;;;8.45;;
56997;SDS011;42890;44.244;22.530;2023-04-29T12:50:40;12.98;;;9.40;;
56997;SDS011;42890;44.244;22.530;2023-04-29T12:53:08;11.43;;;8.73;;
56997;SDS011;42890;44.244;22.530;2023-04-29T12:55:36;15.30;;;8.80;;
56997;SDS011;42890;44.244;22.530;2023-04-29T12:58:02;12.82;;;8.55;;
56997;SDS011;42890;44.244;22.530;2023-04-29T13:00:29;12.13;;;8.93;;
56997;SDS011;42890;44.244;22.530;2023-04-29T13:02:56;11.80;;;9.13;;
56997;SDS011;42890;44.244;22.530;2023-04-29T13:05:22;14.68;;;9.23;;
56997;SDS011;42890;44.244;22.530;2023-04-29T13:07:48;13.50;;;9.40;;
56997;SDS011;42890;44.244;22.530;2023-04-29T13:10:15;12.02;;;8.38;;
56997;SDS011;42890;44.244;22.530;2023-04-29T13:12:41;10.93;;;8.60;;
56997;SDS011;42890;44.244;22.530;2023-04-29T13:15:07;12.63;;;8.70;;
56997;SDS011;42890;44.244;22.530;2023-04-29T13:17:34;10.88;;;8.65;;
56997;SDS011;42890;44.244;22.530;2023-04-29T13:20:02;10.60;;;8.32;;
56997;SDS011;42890;44.244;22.530;2023-04-29T13:22:28;11.60;;;8.48;;
56997;SDS011;42890;44.244;22.530;2023-04-29T13:24:54;10.45;;;8.25;;
56997;SDS011;42890;44.244;22.530;2023-04-29T13:27:21;12.55;;;8.50;;
56997;SDS011;42890;44.244;22.530;2023-04-29T13:29:47;11.73;;;7.80;;
56997;SDS011;42890;44.244;22.530;2023-04-29T13:32:13;13.57;;;7.82;;
56997;SDS011;42890;44.244;22.530;2023-04-29T13:34:40;11.93;;;8.45;;
56997;SDS011;42890;44.244;22.530;2023-04-29T13:37:07;12.30;;;7.90;;
56997;SDS011;42890;44.244;22.530;2023-04-29T13:39:34;9.93;;;8.07;;
56997;SDS011;42890;44.244;22.530;2023-04-29T13:42:00;16.98;;;7.97;;
56997;SDS011;42890;44.244;22.530;2023-04-29T13:44:28;11.38;;;7.85;;
56997;SDS011;42890;44.244;22.530;2023-04-29T13:46:54;13.10;;;9.63;;
56997;SDS011;42890;44.244;22.530;2023-04-29T13:49:20;15.55;;;10.15;;
56997;SDS011;42890;44.244;22.530;2023-04-29T13:51:46;14.65;;;10.50;;
56997;SDS011;42890;44.244;22.530;2023-04-29T13:54:13;14.90;;;10.02;;
56997;SDS011;42890;44.244;22.530;2023-04-29T13:56:39;10.40;;;8.07;;
56997;SDS011;42890;44.244;22.530;2023-04-29T13:59:05;10.82;;;7.95;;
56997;SDS011;42890;44.244;22.530;2023-04-29T14:01:31;14.35;;;8.63;;
56997;SDS011;42890;44.244;22.530;2023-04-29T14:03:57;14.88;;;8.25;;
56997;SDS011;42890;44.244;22.530;2023-04-29T14:06:24;10.85;;;9.73;;
56997;SDS011;42890;44.244;22.530;2023-04-29T14:08:50;12.88;;;10.65;;
56997;SDS011;42890;44.244;22.530;2023-04-29T14:11:16;16.38;;;11.13;;
56997;SDS011;42890;44.244;22.530;2023-04-29T14:13:43;14.20;;;9.50;;
56997;SDS011;42890;44.244;22.530;2023-04-29T14:16:10;13.30;;;9.02;;
56997;SDS011;42890;44.244;22.530;2023-04-29T14:18:36;11.23;;;9.23;;
56997;SDS011;42890;44.244;22.530;2023-04-29T14:21:02;10.43;;;7.55;;
56997;SDS011;42890;44.244;22.530;2023-04-29T14:23:28;9.77;;;6.40;;
56997;SDS011;42890;44.244;22.530;2023-04-29T14:25:54;7.47;;;5.45;;
56997;SDS011;42890;44.244;22.530;2023-04-29T14:28:21;11.63;;;5.47;;
56997;SDS011;42890;44.244;22.530;2023-04-29T14:30:47;10.85;;;6.93;;
56997;SDS011;42890;44.244;22.530;2023-04-29T14:33:13;9.00;;;5.55;;
56997;SDS011;42890;44.244;22.530;2023-04-29T14:35:39;11.52;;;5.78;;